sensor_id;sensor_type;location;lat;lon;timestamp;pressure;altitude;pressure_sealevel;temperature;humidity
24858;BME280;12935;50.782;6.074;2022-07-10T00:01:05;100615.47;;;14.51;100.00
24858;BME280;12935;50.782;6.074;2022-07-10T00:03:30;100612.31;;;14.49;100.00
24858;BME280;12935;50.782;6.074;2022-07-10T00:05:55;100613.84;;;14.22;100.00
24858;BME280;12935;50.782;6.074;2022-07-10T00:08:21;100613.06;;;14.18;100.00
24858;BME280;12935;50.782;6.074;2022-07-10T00:10:47;100613.47;;;14.23;100.00
24858;BME280;12935;50.782;6.074;2022-07-10T00:13:12;100622.09;;;14.18;100.00
24858;BME280;12935;50.782;6.074;2022-07-10T00:15:38;100608.75;;;14.27;100.00
24858;BME280;12935;50.782;6.074;2022-07-10T00:18:03;100613.88;;;14.39;100.00
24858;BME280;12935;50.782;6.074;2022-07-10T00:20:28;100619.00;;;14.48;100.00
24858;BME280;12935;50.782;6.074;2022-07-10T00:22:53;100622.16;;;14.50;100.00
24858;BME280;12935;50.782;6.074;2022-07-10T00:25:19;100603.28;;;14.52;100.00
24858;BME280;12935;50.782;6.074;2022-07-10T00:27:44;100603.28;;;14.56;100.00
24858;BME280;12935;50.782;6.074;2022-07-10T00:30:10;100602.50;;;14.52;100.00
24858;BME280;12935;50.782;6.074;2022-07-10T00:32:36;100609.59;;;14.46;100.00
24858;BME280;12935;50.782;6.074;2022-07-10T00:35:02;100600.16;;;14.50;100.00
24858;BME280;12935;50.782;6.074;2022-07-10T00:37:28;100601.72;;;14.51;100.00
24858;BME280;12935;50.782;6.074;2022-07-10T00:39:54;100596.59;;;14.39;100.00
24858;BME280;12935;50.782;6.074;2022-07-10T00:42:19;100593.81;;;14.35;100.00
24858;BME280;12935;50.782;6.074;2022-07-10T00:44:45;100591.91;;;14.43;100.00
24858;BME280;12935;50.782;6.074;2022-07-10T00:47:11;100600.91;;;14.29;100.00
24858;BME280;12935;50.782;6.074;2022-07-10T00:49:38;100605.97;;;14.02;100.00
24858;BME280;12935;50.782;6.074;2022-07-10T00:52:08;100594.53;;;13.86;100.00
24858;BME280;12935;50.782;6.074;2022-07-10T00:54:35;100588.28;;;13.89;100.00
24858;BME280;12935;50.782;6.074;2022-07-10T00:57:04;100600.44;;;13.85;100.00
24858;BME280;12935;50.782;6.074;2022-07-10T00:59:33;100594.53;;;13.86;100.00
24858;BME280;12935;50.782;6.074;2022-07-10T01:02:00;100587.09;;;13.83;100.00
24858;BME280;12935;50.782;6.074;2022-07-10T01:04:25;100576.91;;;13.94;100.00
24858;BME280;12935;50.782;6.074;2022-07-10T01:06:51;100580.44;;;13.91;100.00
24858;BME280;12935;50.782;6.074;2022-07-10T01:09:16;100565.91;;;13.91;100.00
24858;BME280;12935;50.782;6.074;2022-07-10T01:11:41;100571.41;;;13.94;100.00
24858;BME280;12935;50.782;6.074;2022-07-10T01:14:07;100571.00;;;13.78;100.00
24858;BME280;12935;50.782;6.074;2022-07-10T01:16:33;100560.34;;;13.59;100.00
24858;BME280;12935;50.782;6.074;2022-07-10T01:18:59;100563.88;;;13.52;100.00
24858;BME280;12935;50.782;6.074;2022-07-10T01:21:29;100568.56;;;13.52;100.00
24858;BME280;12935;50.782;6.074;2022-07-10T01:23:55;100560.66;;;13.36;100.00
24858;BME280;12935;50.782;6.074;2022-07-10T01:26:21;100560.31;;;13.52;100.00
24858;BME280;12935;50.782;6.074;2022-07-10T01:28:49;100547.75;;;13.54;100.00
24858;BME280;12935;50.782;6.074;2022-07-10T01:31:17;100552.13;;;13.73;100.00
24858;BME280;12935;50.782;6.074;2022-07-10T01:33:42;100547.44;;;13.81;100.00
24858;BME280;12935;50.782;6.074;2022-07-10T01:36:09;100540.41;;;13.83;100.00
24858;BME280;12935;50.782;6.074;2022-07-10T01:38:35;100535.69;;;13.91;100.00
24858;BME280;12935;50.782;6.074;2022-07-10T01:41:00;100543.94;;;13.98;100.00
24858;BME280;12935;50.782;6.074;2022-07-10T01:43:25;100540.78;;;13.92;100.00
24858;BME280;12935;50.782;6.074;2022-07-10T01:45:50;100534.91;;;13.83;100.00
24858;BME280;12935;50.782;6.074;2022-07-10T01:48:16;100532.53;;;13.78;100.00
24858;BME280;12935;50.782;6.074;2022-07-10T01:50:43;100543.06;;;13.51;100.00
24858;BME280;12935;50.782;6.074;2022-07-10T01:53:08;100545.78;;;13.44;100.00
24858;BME280;12935;50.782;6.074;2022-07-10T01:55:34;100540.63;;;13.32;100.00
24858;BME280;12935;50.782;6.074;2022-07-10T01:57:59;100543.38;;;13.32;100.00
24858;BME280;12935;50.782;6.074;2022-07-10T02:00:24;100541.81;;;13.31;100.00
24858;BME280;12935;50.782;6.074;2022-07-10T02:02:50;100538.69;;;13.32;100.00
24858;BME280;12935;50.782;6.074;2022-07-10T02:05:33;100542.22;;;13.37;100.00
24858;BME280;12935;50.782;6.074;2022-07-10T02:07:59;100531.25;;;13.40;100.00
24858;BME280;12935;50.782;6.074;2022-07-10T02:10:24;100532.41;;;13.39;100.00
24858;BME280;12935;50.782;6.074;2022-07-10T02:12:50;100515.13;;;13.28;100.00
24858;BME280;12935;50.782;6.074;2022-07-10T02:15:15;100527.75;;;13.50;100.00
24858;BME280;12935;50.782;6.074;2022-07-10T02:17:40;100525.41;;;13.59;100.00
24858;BME280;12935;50.782;6.074;2022-07-10T02:20:06;100528.19;;;13.66;100.00
24858;BME280;12935;50.782;6.074;2022-07-10T02:22:31;100515.66;;;13.80;100.00
24858;BME280;12935;50.782;6.074;2022-07-10T02:24:57;100512.53;;;13.95;100.00
24858;BME280;12935;50.782;6.074;2022-07-10T02:27:22;100516.06;;;13.96;100.00
24858;BME280;12935;50.782;6.074;2022-07-10T02:29:47;100520.00;;;13.84;100.00
24858;BME280;12935;50.782;6.074;2022-07-10T02:32:13;100522.69;;;13.70;100.00
24858;BME280;12935;50.782;6.074;2022-07-10T02:34:38;100518.38;;;13.62;100.00
24858;BME280;12935;50.782;6.074;2022-07-10T02:37:03;100522.63;;;13.42;100.00
24858;BME280;12935;50.782;6.074;2022-07-10T02:39:29;100528.94;;;13.53;100.00
24858;BME280;12935;50.782;6.074;2022-07-10T02:41:54;100528.16;;;13.52;100.00
24858;BME280;12935;50.782;6.074;2022-07-10T02:44:19;100528.97;;;13.63;100.00
24858;BME280;12935;50.782;6.074;2022-07-10T02:46:45;100539.19;;;13.77;100.00
24858;BME280;12935;50.782;6.074;2022-07-10T02:49:10;100528.59;;;13.72;100.00
24858;BME280;12935;50.782;6.074;2022-07-10T02:51:36;100532.13;;;13.69;100.00
24858;BME280;12935;50.782;6.074;2022-07-10T02:54:01;100536.00;;;13.57;100.00
24858;BME280;12935;50.782;6.074;2022-07-10T02:56:27;100528.13;;;13.45;100.00
24858;BME280;12935;50.782;6.074;2022-07-10T02:58:52;100528.09;;;13.38;100.00
24858;BME280;12935;50.782;6.074;2022-07-10T03:01:18;100525.75;;;13.37;100.00
24858;BME280;12935;50.782;6.074;2022-07-10T03:03:43;100523.41;;;13.35;100.00
24858;BME280;12935;50.782;6.074;2022-07-10T03:06:09;100519.44;;;13.29;100.00
24858;BME280;12935;50.782;6.074;2022-07-10T03:08:34;100529.28;;;13.37;100.00
24858;BME280;12935;50.782;6.074;2022-07-10T03:11:00;100526.91;;;13.32;100.00
24858;BME280;12935;50.782;6.074;2022-07-10T03:13:25;100530.44;;;13.32;100.00
24858;BME280;12935;50.782;6.074;2022-07-10T03:15:53;100524.97;;;13.32;100.00
24858;BME280;12935;50.782;6.074;2022-07-10T03:18:19;100531.69;;;13.53;100.00
24858;BME280;12935;50.782;6.074;2022-07-10T03:20:44;100536.41;;;13.52;100.00
24858;BME280;12935;50.782;6.074;2022-07-10T03:23:09;100532.44;;;13.43;100.00
24858;BME280;12935;50.782;6.074;2022-07-10T03:25:34;100538.69;;;13.40;100.00
24858;BME280;12935;50.782;6.074;2022-07-10T03:28:00;100533.22;;;13.36;100.00
24858;BME280;12935;50.782;6.074;2022-07-10T03:30:25;100522.22;;;13.32;100.00
24858;BME280;12935;50.782;6.074;2022-07-10T03:32:50;100531.63;;;13.35;100.00
24858;BME280;12935;50.782;6.074;2022-07-10T03:35:15;100534.38;;;13.35;100.00
24858;BME280;12935;50.782;6.074;2022-07-10T03:37:41;100532.03;;;13.33;100.00
24858;BME280;12935;50.782;6.074;2022-07-10T03:40:08;100515.94;;;13.39;100.00
24858;BME280;12935;50.782;6.074;2022-07-10T03:42:33;100525.41;;;13.49;100.00
24858;BME280;12935;50.782;6.074;2022-07-10T03:44:59;100524.97;;;13.32;100.00
24858;BME280;12935;50.782;6.074;2022-07-10T03:47:24;100522.97;;;13.26;100.00
24858;BME280;12935;50.782;6.074;2022-07-10T03:49:49;100526.53;;;13.37;100.00
24858;BME280;12935;50.782;6.074;2022-07-10T03:52:15;100516.34;;;13.41;100.00
24858;BME280;12935;50.782;6.074;2022-07-10T03:54:40;100528.50;;;13.33;100.00
24858;BME280;12935;50.782;6.074;2022-07-10T03:57:05;100515.19;;;13.46;100.00
24858;BME280;12935;50.782;6.074;2022-07-10T03:59:50;100528.50;;;13.40;100.00
24858;BME280;12935;50.782;6.074;2022-07-10T04:02:15;100539.09;;;13.34;100.00
24858;BME280;12935;50.782;6.074;2022-07-10T04:04:41;100531.22;;;13.29;100.00
24858;BME280;12935;50.782;6.074;2022-07-10T04:07:06;100526.09;;;13.24;100.00
24858;BME280;12935;50.782;6.074;2022-07-10T04:09:31;100529.63;;;13.25;100.00
24858;BME280;12935;50.782;6.074;2022-07-10T04:11:57;100528.50;;;13.33;100.00
24858;BME280;12935;50.782;6.074;2022-07-10T04:14:22;100530.44;;;13.32;100.00
24858;BME280;12935;50.782;6.074;2022-07-10T04:16:47;100513.16;;;13.28;100.00
24858;BME280;12935;50.782;6.074;2022-07-10T04:19:12;100518.69;;;13.36;100.00
24858;BME280;12935;50.782;6.074;2022-07-10T04:21:38;100525.34;;;13.38;100.00
24858;BME280;12935;50.782;6.074;2022-07-10T04:24:03;100519.88;;;13.42;100.00
24858;BME280;12935;50.782;6.074;2022-07-10T04:26:29;100520.66;;;13.42;100.00
24858;BME280;12935;50.782;6.074;2022-07-10T04:28:54;100528.94;;;13.49;100.00
24858;BME280;12935;50.782;6.074;2022-07-10T04:31:19;100517.13;;;13.42;100.00
24858;BME280;12935;50.782;6.074;2022-07-10T04:33:45;100510.09;;;13.44;100.00
24858;BME280;12935;50.782;6.074;2022-07-10T04:36:10;100512.44;;;13.46;100.00
24858;BME280;12935;50.782;6.074;2022-07-10T04:38:35;100517.56;;;13.47;100.00
24858;BME280;12935;50.782;6.074;2022-07-10T04:41:00;100528.16;;;13.52;100.00
24858;BME280;12935;50.782;6.074;2022-07-10T04:43:26;100530.50;;;13.50;100.00
24858;BME280;12935;50.782;6.074;2022-07-10T04:45:51;100523.03;;;13.47;100.00
24858;BME280;12935;50.782;6.074;2022-07-10T04:48:17;100521.88;;;13.48;100.00
24858;BME280;12935;50.782;6.074;2022-07-10T04:50:42;100524.59;;;13.45;100.00
24858;BME280;12935;50.782;6.074;2022-07-10T04:53:07;100534.44;;;13.53;100.00
24858;BME280;12935;50.782;6.074;2022-07-10T04:55:33;100528.53;;;13.54;100.00
24858;BME280;12935;50.782;6.074;2022-07-10T04:57:58;100534.84;;;13.65;100.00
24858;BME280;12935;50.782;6.074;2022-07-10T05:00:24;100526.59;;;13.62;100.00
24858;BME280;12935;50.782;6.074;2022-07-10T05:02:49;100530.53;;;13.61;100.00
24858;BME280;12935;50.782;6.074;2022-07-10T05:05:15;100530.94;;;13.66;100.00
24858;BME280;12935;50.782;6.074;2022-07-10T05:07:40;100530.94;;;13.77;100.00
24858;BME280;12935;50.782;6.074;2022-07-10T05:10:05;100536.84;;;13.83;100.00
24858;BME280;12935;50.782;6.074;2022-07-10T05:12:31;100536.06;;;13.82;100.00
24858;BME280;12935;50.782;6.074;2022-07-10T05:14:56;100543.53;;;13.89;100.00
24858;BME280;12935;50.782;6.074;2022-07-10T05:17:22;100536.50;;;13.98;100.00
24858;BME280;12935;50.782;6.074;2022-07-10T05:19:48;100538.44;;;13.98;100.00
24858;BME280;12935;50.782;6.074;2022-07-10T05:22:13;100541.56;;;13.93;100.00
24858;BME280;12935;50.782;6.074;2022-07-10T05:24:39;100549.41;;;13.91;100.00
24858;BME280;12935;50.782;6.074;2022-07-10T05:27:04;100560.81;;;13.96;100.00
24858;BME280;12935;50.782;6.074;2022-07-10T05:29:30;100549.03;;;14.03;100.00
24858;BME280;12935;50.782;6.074;2022-07-10T05:31:55;100548.25;;;14.02;100.00
24858;BME280;12935;50.782;6.074;2022-07-10T05:34:20;100556.13;;;14.08;100.00
24858;BME280;12935;50.782;6.074;2022-07-10T05:36:46;100558.50;;;14.16;100.00
24858;BME280;12935;50.782;6.074;2022-07-10T05:39:11;100545.91;;;14.12;100.00
24858;BME280;12935;50.782;6.074;2022-07-10T05:41:36;100559.66;;;14.19;100.00
24858;BME280;12935;50.782;6.074;2022-07-10T05:44:02;100565.16;;;14.22;100.00
24858;BME280;12935;50.782;6.074;2022-07-10T05:46:27;100549.47;;;14.16;100.00
24858;BME280;12935;50.782;6.074;2022-07-10T05:48:53;100552.59;;;14.21;100.00
24858;BME280;12935;50.782;6.074;2022-07-10T05:51:18;100533.34;;;14.21;100.00
24858;BME280;12935;50.782;6.074;2022-07-10T05:53:43;100546.31;;;14.28;100.00
24858;BME280;12935;50.782;6.074;2022-07-10T05:56:08;100534.91;;;14.22;100.00
24858;BME280;12935;50.782;6.074;2022-07-10T05:58:34;100541.59;;;14.25;100.00
24858;BME280;12935;50.782;6.074;2022-07-10T06:00:59;100544.72;;;14.23;100.00
24858;BME280;12935;50.782;6.074;2022-07-10T06:03:24;100548.66;;;14.29;100.00
24858;BME280;12935;50.782;6.074;2022-07-10T06:05:50;100550.25;;;14.30;100.00
24858;BME280;12935;50.782;6.074;2022-07-10T06:08:15;100546.31;;;14.28;100.00
24858;BME280;12935;50.782;6.074;2022-07-10T06:10:40;100542.00;;;14.30;100.00
24858;BME280;12935;50.782;6.074;2022-07-10T06:13:06;100547.47;;;14.34;100.00
24858;BME280;12935;50.782;6.074;2022-07-10T06:15:32;100556.13;;;14.50;100.00
24858;BME280;12935;50.782;6.074;2022-07-10T06:17:57;100538.47;;;14.62;100.00
24858;BME280;12935;50.782;6.074;2022-07-10T06:20:26;100560.84;;;14.57;100.00
24858;BME280;12935;50.782;6.074;2022-07-10T06:22:51;100561.25;;;14.52;100.00
24858;BME280;12935;50.782;6.074;2022-07-10T06:25:16;100563.25;;;14.48;100.00
24858;BME280;12935;50.782;6.074;2022-07-10T06:27:42;100562.06;;;14.42;100.00
24858;BME280;12935;50.782;6.074;2022-07-10T06:30:07;100566.38;;;14.46;100.00
24858;BME280;12935;50.782;6.074;2022-07-10T06:32:33;100558.09;;;14.39;100.00
24858;BME280;12935;50.782;6.074;2022-07-10T06:34:58;100564.81;;;14.42;100.00
24858;BME280;12935;50.782;6.074;2022-07-10T06:37:24;100562.81;;;14.49;100.00
24858;BME280;12935;50.782;6.074;2022-07-10T06:39:49;100563.59;;;14.57;100.00
24858;BME280;12935;50.782;6.074;2022-07-10T06:42:14;100565.56;;;14.53;100.00
24858;BME280;12935;50.782;6.074;2022-07-10T06:44:41;100566.75;;;14.48;100.00
24858;BME280;12935;50.782;6.074;2022-07-10T06:47:07;100573.03;;;14.52;100.00
24858;BME280;12935;50.782;6.074;2022-07-10T06:49:52;100570.28;;;14.52;100.00
24858;BME280;12935;50.782;6.074;2022-07-10T06:52:18;100558.50;;;14.41;100.00
24858;BME280;12935;50.782;6.074;2022-07-10T06:54:43;100573.81;;;14.49;100.00
24858;BME280;12935;50.782;6.074;2022-07-10T06:57:09;100571.88;;;14.57;100.00
24858;BME280;12935;50.782;6.074;2022-07-10T06:59:34;100564.41;;;14.61;100.00
24858;BME280;12935;50.782;6.074;2022-07-10T07:02:00;100580.88;;;14.71;100.00
24858;BME280;12935;50.782;6.074;2022-07-10T07:04:25;100564.75;;;14.81;100.00
24858;BME280;12935;50.782;6.074;2022-07-10T07:06:50;100567.50;;;14.88;100.00
24858;BME280;12935;50.782;6.074;2022-07-10T07:09:16;100573.00;;;14.95;100.00
24858;BME280;12935;50.782;6.074;2022-07-10T07:11:41;100585.16;;;15.08;100.00
24858;BME280;12935;50.782;6.074;2022-07-10T07:14:06;100577.69;;;15.05;100.00
24858;BME280;12935;50.782;6.074;2022-07-10T07:16:32;100591.03;;;15.10;100.00
24858;BME280;12935;50.782;6.074;2022-07-10T07:19:06;100573.31;;;15.11;100.00
24858;BME280;12935;50.782;6.074;2022-07-10T07:21:32;100580.38;;;15.19;100.00
24858;BME280;12935;50.782;6.074;2022-07-10T07:24:16;100572.84;;;15.34;100.00
24858;BME280;12935;50.782;6.074;2022-07-10T07:26:44;100569.28;;;15.40;100.00
24858;BME280;12935;50.782;6.074;2022-07-10T07:29:12;100575.91;;;15.64;100.00
24858;BME280;12935;50.782;6.074;2022-07-10T07:31:38;100562.44;;;15.77;100.00
24858;BME280;12935;50.782;6.074;2022-07-10T07:34:03;100576.22;;;15.77;100.00
24858;BME280;12935;50.782;6.074;2022-07-10T07:36:28;100573.84;;;15.75;100.00
24858;BME280;12935;50.782;6.074;2022-07-10T07:38:55;100574.19;;;15.88;100.00
24858;BME280;12935;50.782;6.074;2022-07-10T07:41:20;100571.09;;;15.75;100.00
24858;BME280;12935;50.782;6.074;2022-07-10T07:43:46;100575.44;;;15.76;100.00
24858;BME280;12935;50.782;6.074;2022-07-10T07:46:11;100571.75;;;15.97;100.00
24858;BME280;12935;50.782;6.074;2022-07-10T07:48:36;100566.50;;;16.21;100.00
24858;BME280;12935;50.782;6.074;2022-07-10T07:51:02;100570.84;;;16.14;100.00
24858;BME280;12935;50.782;6.074;2022-07-10T07:53:27;100558.63;;;16.19;100.00
24858;BME280;12935;50.782;6.074;2022-07-10T07:55:53;100568.13;;;16.07;100.00
24858;BME280;12935;50.782;6.074;2022-07-10T07:58:19;100573.38;;;15.91;100.00
24858;BME280;12935;50.782;6.074;2022-07-10T08:00:45;100576.19;;;15.84;100.00
24858;BME280;12935;50.782;6.074;2022-07-10T08:03:10;100572.22;;;15.89;100.00
24858;BME280;12935;50.782;6.074;2022-07-10T08:05:35;100572.56;;;15.94;100.00
24858;BME280;12935;50.782;6.074;2022-07-10T08:08:01;100568.25;;;15.93;100.00
24858;BME280;12935;50.782;6.074;2022-07-10T08:10:31;100566.25;;;15.94;100.00
24858;BME280;12935;50.782;6.074;2022-07-10T08:12:57;100573.34;;;15.98;100.00
24858;BME280;12935;50.782;6.074;2022-07-10T08:15:22;100573.34;;;15.95;100.00
24858;BME280;12935;50.782;6.074;2022-07-10T08:17:49;100572.97;;;15.93;100.00
24858;BME280;12935;50.782;6.074;2022-07-10T08:20:15;100564.31;;;15.91;100.00
24858;BME280;12935;50.782;6.074;2022-07-10T08:22:41;100565.88;;;15.95;100.00
24858;BME280;12935;50.782;6.074;2022-07-10T08:25:07;100576.47;;;16.04;100.00
24858;BME280;12935;50.782;6.074;2022-07-10T08:27:33;100564.97;;;16.09;100.00
24858;BME280;12935;50.782;6.074;2022-07-10T08:29:58;100559.47;;;16.09;100.00
24858;BME280;12935;50.782;6.074;2022-07-10T08:32:23;100559.47;;;16.09;100.00
24858;BME280;12935;50.782;6.074;2022-07-10T08:34:49;100554.69;;;16.17;100.00
24858;BME280;12935;50.782;6.074;2022-07-10T08:37:14;100568.38;;;16.31;100.00
24858;BME280;12935;50.782;6.074;2022-07-10T08:39:40;100567.88;;;16.43;100.00
24858;BME280;12935;50.782;6.074;2022-07-10T08:42:07;100564.56;;;16.66;100.00
24858;BME280;12935;50.782;6.074;2022-07-10T08:44:33;100571.16;;;16.75;99.81
24858;BME280;12935;50.782;6.074;2022-07-10T08:46:59;100562.06;;;16.78;94.79
24858;BME280;12935;50.782;6.074;2022-07-10T08:49:29;100559.50;;;16.98;96.94
24858;BME280;12935;50.782;6.074;2022-07-10T08:52:03;100545.75;;;17.25;95.83
24858;BME280;12935;50.782;6.074;2022-07-10T08:54:30;100558.59;;;17.39;92.19
24858;BME280;12935;50.782;6.074;2022-07-10T08:56:57;100553.19;;;17.62;91.19
24858;BME280;12935;50.782;6.074;2022-07-10T08:59:22;100550.06;;;17.87;87.43
24858;BME280;12935;50.782;6.074;2022-07-10T09:01:48;100552.47;;;17.85;87.53
24858;BME280;12935;50.782;6.074;2022-07-10T09:04:18;100553.44;;;17.41;87.47
24858;BME280;12935;50.782;6.074;2022-07-10T09:06:45;100547.22;;;17.33;88.66
24858;BME280;12935;50.782;6.074;2022-07-10T09:09:10;100546.53;;;17.26;88.77
24858;BME280;12935;50.782;6.074;2022-07-10T09:11:38;100552.69;;;17.37;89.83
24858;BME280;12935;50.782;6.074;2022-07-10T09:14:06;100543.06;;;17.48;87.54
24858;BME280;12935;50.782;6.074;2022-07-10T09:16:37;100550.72;;;17.37;87.31
24858;BME280;12935;50.782;6.074;2022-07-10T09:19:18;100543.00;;;17.25;86.55
24858;BME280;12935;50.782;6.074;2022-07-10T09:21:45;100532.91;;;17.11;87.28
24858;BME280;12935;50.782;6.074;2022-07-10T09:24:11;100539.53;;;17.17;88.49
24858;BME280;12935;50.782;6.074;2022-07-10T09:26:37;100543.78;;;17.26;88.97
24858;BME280;12935;50.782;6.074;2022-07-10T09:29:11;100539.41;;;17.28;89.39
24858;BME280;12935;50.782;6.074;2022-07-10T09:31:56;100533.59;;;17.19;85.65
24858;BME280;12935;50.782;6.074;2022-07-10T09:34:41;100545.00;;;17.21;87.09
24858;BME280;12935;50.782;6.074;2022-07-10T09:40:02;100531.59;;;17.19;87.51
24858;BME280;12935;50.782;6.074;2022-07-10T09:42:41;100534.31;;;17.53;88.76
24858;BME280;12935;50.782;6.074;2022-07-10T09:47:43;100521.69;;;17.83;87.52
24858;BME280;12935;50.782;6.074;2022-07-10T09:50:29;100532.38;;;18.08;86.97
24858;BME280;12935;50.782;6.074;2022-07-10T09:52:57;100534.00;;;18.05;84.34
24858;BME280;12935;50.782;6.074;2022-07-10T09:55:25;100525.06;;;18.21;83.49
24858;BME280;12935;50.782;6.074;2022-07-10T09:57:59;100523.09;;;17.95;83.89
24858;BME280;12935;50.782;6.074;2022-07-10T10:00:37;100522.00;;;17.88;85.50
24858;BME280;12935;50.782;6.074;2022-07-10T10:03:05;100522.22;;;17.74;85.79
24858;BME280;12935;50.782;6.074;2022-07-10T10:08:27;100537.97;;;18.04;86.15
24858;BME280;12935;50.782;6.074;2022-07-10T10:10:56;100528.00;;;17.83;85.49
24858;BME280;12935;50.782;6.074;2022-07-10T10:13:23;100541.09;;;17.79;85.60
24858;BME280;12935;50.782;6.074;2022-07-10T10:15:51;100539.09;;;17.80;84.89
24858;BME280;12935;50.782;6.074;2022-07-10T10:18:17;100530.03;;;17.79;85.84
24858;BME280;12935;50.782;6.074;2022-07-10T10:20:45;100521.50;;;17.70;86.26
24858;BME280;12935;50.782;6.074;2022-07-10T10:23:13;100526.22;;;17.70;87.06
24858;BME280;12935;50.782;6.074;2022-07-10T10:25:39;100530.56;;;17.71;86.89
24858;BME280;12935;50.782;6.074;2022-07-10T10:28:07;100537.03;;;17.87;85.49
24858;BME280;12935;50.782;6.074;2022-07-10T10:30:36;100530.63;;;17.94;84.70
24858;BME280;12935;50.782;6.074;2022-07-10T10:33:02;100523.81;;;17.99;85.46
24858;BME280;12935;50.782;6.074;2022-07-10T10:36:00;100524.38;;;18.13;84.25
24858;BME280;12935;50.782;6.074;2022-07-10T10:46:34;100520.16;;;18.05;83.82
24858;BME280;12935;50.782;6.074;2022-07-10T10:49:07;100525.34;;;18.03;83.77
24858;BME280;12935;50.782;6.074;2022-07-10T10:52:04;100528.19;;;17.96;84.29
24858;BME280;12935;50.782;6.074;2022-07-10T10:57:21;100523.63;;;17.86;85.81
24858;BME280;12935;50.782;6.074;2022-07-10T10:59:51;100517.25;;;17.89;84.42
24858;BME280;12935;50.782;6.074;2022-07-10T11:02:28;100519.97;;;17.93;84.66
24858;BME280;12935;50.782;6.074;2022-07-10T11:08:03;100507.22;;;18.45;81.18
24858;BME280;12935;50.782;6.074;2022-07-10T11:13:04;100529.81;;;19.07;78.43
24858;BME280;12935;50.782;6.074;2022-07-10T11:15:31;100513.72;;;19.02;77.55
24858;BME280;12935;50.782;6.074;2022-07-10T11:18:08;100507.88;;;19.16;77.19
24858;BME280;12935;50.782;6.074;2022-07-10T11:28:52;100506.03;;;20.91;65.65
24858;BME280;12935;50.782;6.074;2022-07-10T11:31:25;100514.94;;;21.28;64.12
24858;BME280;12935;50.782;6.074;2022-07-10T11:33:53;100500.41;;;21.87;61.75
24858;BME280;12935;50.782;6.074;2022-07-10T11:36:23;100491.78;;;22.32;61.15
24858;BME280;12935;50.782;6.074;2022-07-10T11:39:01;100500.03;;;22.58;57.08
24858;BME280;12935;50.782;6.074;2022-07-10T11:41:27;100495.28;;;23.02;56.46
24858;BME280;12935;50.782;6.074;2022-07-10T11:43:54;100491.75;;;22.67;55.65
24858;BME280;12935;50.782;6.074;2022-07-10T11:46:22;100491.72;;;23.01;56.50
24858;BME280;12935;50.782;6.074;2022-07-10T11:48:48;100483.19;;;22.61;57.36
24858;BME280;12935;50.782;6.074;2022-07-10T11:51:39;100482.50;;;22.01;59.07
24858;BME280;12935;50.782;6.074;2022-07-10T11:54:06;100487.56;;;21.26;61.53
24858;BME280;12935;50.782;6.074;2022-07-10T11:56:36;100487.09;;;20.74;63.77
24858;BME280;12935;50.782;6.074;2022-07-10T11:59:05;100481.97;;;20.72;65.27
24858;BME280;12935;50.782;6.074;2022-07-10T12:01:32;100489.47;;;21.29;63.65
24858;BME280;12935;50.782;6.074;2022-07-10T12:03:59;100481.06;;;21.71;62.24
24858;BME280;12935;50.782;6.074;2022-07-10T12:06:25;100465.09;;;21.97;59.29
24858;BME280;12935;50.782;6.074;2022-07-10T12:08:51;100488.03;;;21.88;59.28
24858;BME280;12935;50.782;6.074;2022-07-10T12:11:18;100468.66;;;22.10;59.15
24858;BME280;12935;50.782;6.074;2022-07-10T12:13:44;100476.72;;;21.70;59.93
24858;BME280;12935;50.782;6.074;2022-07-10T12:16:10;100471.00;;;20.94;63.56
24858;BME280;12935;50.782;6.074;2022-07-10T12:18:35;100474.84;;;20.42;65.90
24858;BME280;12935;50.782;6.074;2022-07-10T12:21:01;100480.41;;;19.93;68.86
24858;BME280;12935;50.782;6.074;2022-07-10T12:23:28;100487.06;;;19.64;72.14
24858;BME280;12935;50.782;6.074;2022-07-10T12:25:53;100474.69;;;19.32;74.58
24858;BME280;12935;50.782;6.074;2022-07-10T12:28:20;100471.44;;;19.17;77.58
24858;BME280;12935;50.782;6.074;2022-07-10T12:30:47;100483.19;;;19.41;77.78
24858;BME280;12935;50.782;6.074;2022-07-10T12:33:19;100483.69;;;19.72;76.27
24858;BME280;12935;50.782;6.074;2022-07-10T12:38:21;100481.97;;;20.11;73.66
24858;BME280;12935;50.782;6.074;2022-07-10T12:40:47;100484.41;;;20.09;73.44
24858;BME280;12935;50.782;6.074;2022-07-10T12:43:23;100486.88;;;20.36;72.67
24858;BME280;12935;50.782;6.074;2022-07-10T12:46:10;100474.09;;;19.93;72.92
24858;BME280;12935;50.782;6.074;2022-07-10T12:48:36;100484.31;;;19.64;75.75
24858;BME280;12935;50.782;6.074;2022-07-10T12:51:21;100494.06;;;19.52;78.19
24858;BME280;12935;50.782;6.074;2022-07-10T12:53:46;100490.22;;;19.46;78.12
24858;BME280;12935;50.782;6.074;2022-07-10T12:56:33;100485.31;;;19.53;79.08
24858;BME280;12935;50.782;6.074;2022-07-10T12:58:59;100482.63;;;19.50;78.87
24858;BME280;12935;50.782;6.074;2022-07-10T13:01:29;100478.50;;;19.38;79.03
24858;BME280;12935;50.782;6.074;2022-07-10T13:04:03;100481.06;;;19.29;79.04
24858;BME280;12935;50.782;6.074;2022-07-10T13:06:33;100476.19;;;19.17;80.94
24858;BME280;12935;50.782;6.074;2022-07-10T13:09:00;100476.69;;;19.12;80.69
24858;BME280;12935;50.782;6.074;2022-07-10T13:11:25;100476.75;;;19.28;80.24
24858;BME280;12935;50.782;6.074;2022-07-10T13:13:52;100459.78;;;19.62;78.23
24858;BME280;12935;50.782;6.074;2022-07-10T13:16:18;100455.66;;;20.15;76.38
24858;BME280;12935;50.782;6.074;2022-07-10T13:18:43;100462.34;;;21.59;69.66